sensor_id;sensor_type;location;lat;lon;timestamp;temperature;humidity
18876;DHT22;9570;50.854;13.778;2023-08-21T00:01:40;22.20;99.90
18876;DHT22;9570;50.854;13.778;2023-08-21T00:04:05;22.10;99.90
18876;DHT22;9570;50.854;13.778;2023-08-21T00:06:31;22.10;99.90
18876;DHT22;9570;50.854;13.778;2023-08-21T00:08:57;22.10;99.90
18876;DHT22;9570;50.854;13.778;2023-08-21T00:11:22;22.00;99.90
18876;DHT22;9570;50.854;13.778;2023-08-21T00:13:48;22.00;99.90
18876;DHT22;9570;50.854;13.778;2023-08-21T00:16:15;21.90;99.90
18876;DHT22;9570;50.854;13.778;2023-08-21T00:18:41;21.90;99.90
18876;DHT22;9570;50.854;13.778;2023-08-21T00:21:06;21.90;99.90
18876;DHT22;9570;50.854;13.778;2023-08-21T00:23:32;21.90;99.90
18876;DHT22;9570;50.854;13.778;2023-08-21T00:25:58;22.00;99.90
18876;DHT22;9570;50.854;13.778;2023-08-21T00:28:23;21.90;99.90
18876;DHT22;9570;50.854;13.778;2023-08-21T00:30:49;21.90;99.90
18876;DHT22;9570;50.854;13.778;2023-08-21T00:33:14;21.80;99.90
18876;DHT22;9570;50.854;13.778;2023-08-21T00:35:40;21.80;99.90
18876;DHT22;9570;50.854;13.778;2023-08-21T00:38:05;21.80;99.90
18876;DHT22;9570;50.854;13.778;2023-08-21T00:40:31;21.80;99.90
18876;DHT22;9570;50.854;13.778;2023-08-21T00:42:57;21.80;99.90
18876;DHT22;9570;50.854;13.778;2023-08-21T00:45:22;21.70;99.90
18876;DHT22;9570;50.854;13.778;2023-08-21T00:47:48;21.70;99.90
18876;DHT22;9570;50.854;13.778;2023-08-21T00:50:14;21.60;99.90
18876;DHT22;9570;50.854;13.778;2023-08-21T00:52:44;21.60;99.90
18876;DHT22;9570;50.854;13.778;2023-08-21T00:55:10;21.60;99.90
18876;DHT22;9570;50.854;13.778;2023-08-21T00:57:36;21.60;99.90
18876;DHT22;9570;50.854;13.778;2023-08-21T01:00:04;21.60;99.90
18876;DHT22;9570;50.854;13.778;2023-08-21T01:02:30;21.50;99.90
18876;DHT22;9570;50.854;13.778;2023-08-21T01:04:55;21.60;99.90
18876;DHT22;9570;50.854;13.778;2023-08-21T01:07:21;21.60;99.90
18876;DHT22;9570;50.854;13.778;2023-08-21T01:09:58;21.50;99.90
18876;DHT22;9570;50.854;13.778;2023-08-21T01:12:50;21.50;99.90
18876;DHT22;9570;50.854;13.778;2023-08-21T01:15:16;21.40;99.90
18876;DHT22;9570;50.854;13.778;2023-08-21T01:17:42;21.30;99.90
18876;DHT22;9570;50.854;13.778;2023-08-21T01:20:09;21.30;99.90
18876;DHT22;9570;50.854;13.778;2023-08-21T01:22:37;21.30;99.90
18876;DHT22;9570;50.854;13.778;2023-08-21T01:25:07;21.40;99.90
18876;DHT22;9570;50.854;13.778;2023-08-21T01:27:35;21.40;99.90
18876;DHT22;9570;50.854;13.778;2023-08-21T01:30:02;21.30;99.90
18876;DHT22;9570;50.854;13.778;2023-08-21T01:35:13;21.20;99.90
18876;DHT22;9570;50.854;13.778;2023-08-21T01:37:41;21.20;99.90
18876;DHT22;9570;50.854;13.778;2023-08-21T01:40:07;21.20;99.90
18876;DHT22;9570;50.854;13.778;2023-08-21T01:42:33;21.20;99.90
18876;DHT22;9570;50.854;13.778;2023-08-21T01:44:59;21.10;99.90
18876;DHT22;9570;50.854;13.778;2023-08-21T01:47:24;21.10;99.90
18876;DHT22;9570;50.854;13.778;2023-08-21T01:49:50;21.10;99.90
18876;DHT22;9570;50.854;13.778;2023-08-21T01:52:19;21.00;99.90
18876;DHT22;9570;50.854;13.778;2023-08-21T01:54:44;21.00;99.90
18876;DHT22;9570;50.854;13.778;2023-08-21T01:57:10;21.00;99.90
18876;DHT22;9570;50.854;13.778;2023-08-21T01:59:36;21.00;99.90
18876;DHT22;9570;50.854;13.778;2023-08-21T02:02:01;21.00;99.90
18876;DHT22;9570;50.854;13.778;2023-08-21T02:04:26;20.90;99.90
18876;DHT22;9570;50.854;13.778;2023-08-21T02:06:52;21.00;99.90
18876;DHT22;9570;50.854;13.778;2023-08-21T02:09:17;20.90;99.90
18876;DHT22;9570;50.854;13.778;2023-08-21T02:11:43;20.90;99.90
18876;DHT22;9570;50.854;13.778;2023-08-21T02:14:08;20.80;99.90
18876;DHT22;9570;50.854;13.778;2023-08-21T02:16:34;20.80;99.90
18876;DHT22;9570;50.854;13.778;2023-08-21T02:18:59;20.80;99.90
18876;DHT22;9570;50.854;13.778;2023-08-21T02:21:25;20.80;99.90
18876;DHT22;9570;50.854;13.778;2023-08-21T02:23:50;20.80;99.90
18876;DHT22;9570;50.854;13.778;2023-08-21T02:26:16;20.80;99.90
18876;DHT22;9570;50.854;13.778;2023-08-21T02:28:42;20.80;99.90
18876;DHT22;9570;50.854;13.778;2023-08-21T02:31:09;20.80;99.90
18876;DHT22;9570;50.854;13.778;2023-08-21T02:33:35;20.80;99.90
18876;DHT22;9570;50.854;13.778;2023-08-21T02:36:01;20.80;99.90
18876;DHT22;9570;50.854;13.778;2023-08-21T02:38:28;20.80;99.90
18876;DHT22;9570;50.854;13.778;2023-08-21T02:40:53;20.80;99.90
18876;DHT22;9570;50.854;13.778;2023-08-21T02:43:19;20.70;99.90
18876;DHT22;9570;50.854;13.778;2023-08-21T02:45:44;20.70;99.90
18876;DHT22;9570;50.854;13.778;2023-08-21T02:48:10;20.70;99.90
18876;DHT22;9570;50.854;13.778;2023-08-21T02:50:35;20.70;99.90
18876;DHT22;9570;50.854;13.778;2023-08-21T02:53:01;20.70;99.90
18876;DHT22;9570;50.854;13.778;2023-08-21T02:55:26;20.60;99.90
18876;DHT22;9570;50.854;13.778;2023-08-21T02:57:52;20.60;99.90
18876;DHT22;9570;50.854;13.778;2023-08-21T03:00:17;20.60;99.90
18876;DHT22;9570;50.854;13.778;2023-08-21T03:02:43;20.60;99.90
18876;DHT22;9570;50.854;13.778;2023-08-21T03:05:09;20.60;99.90
18876;DHT22;9570;50.854;13.778;2023-08-21T03:07:35;20.50;99.90
18876;DHT22;9570;50.854;13.778;2023-08-21T03:10:01;20.50;99.90
18876;DHT22;9570;50.854;13.778;2023-08-21T03:12:27;20.50;99.90
18876;DHT22;9570;50.854;13.778;2023-08-21T03:14:53;20.50;99.90
18876;DHT22;9570;50.854;13.778;2023-08-21T03:17:19;20.50;99.90
18876;DHT22;9570;50.854;13.778;2023-08-21T03:19:44;20.50;99.90
18876;DHT22;9570;50.854;13.778;2023-08-21T03:22:10;20.50;99.90
18876;DHT22;9570;50.854;13.778;2023-08-21T03:24:35;20.40;99.90
18876;DHT22;9570;50.854;13.778;2023-08-21T03:27:01;20.40;99.90
18876;DHT22;9570;50.854;13.778;2023-08-21T03:29:27;20.40;99.90
18876;DHT22;9570;50.854;13.778;2023-08-21T03:31:54;20.30;99.90
18876;DHT22;9570;50.854;13.778;2023-08-21T03:34:20;20.30;99.90
18876;DHT22;9570;50.854;13.778;2023-08-21T03:36:45;20.30;99.90
18876;DHT22;9570;50.854;13.778;2023-08-21T03:39:11;20.30;99.90
18876;DHT22;9570;50.854;13.778;2023-08-21T03:41:37;20.30;99.90
18876;DHT22;9570;50.854;13.778;2023-08-21T03:44:02;20.30;99.90
18876;DHT22;9570;50.854;13.778;2023-08-21T03:46:28;20.30;99.90
18876;DHT22;9570;50.854;13.778;2023-08-21T03:48:53;20.20;99.90
18876;DHT22;9570;50.854;13.778;2023-08-21T03:51:19;20.20;99.90
18876;DHT22;9570;50.854;13.778;2023-08-21T03:53:44;20.20;99.90
18876;DHT22;9570;50.854;13.778;2023-08-21T03:56:10;20.10;99.90
18876;DHT22;9570;50.854;13.778;2023-08-21T03:58:35;20.10;99.90
18876;DHT22;9570;50.854;13.778;2023-08-21T04:01:01;20.10;99.90
18876;DHT22;9570;50.854;13.778;2023-08-21T04:03:26;20.10;99.90
18876;DHT22;9570;50.854;13.778;2023-08-21T04:05:55;20.10;99.90
18876;DHT22;9570;50.854;13.778;2023-08-21T04:08:24;20.10;99.90
18876;DHT22;9570;50.854;13.778;2023-08-21T04:10:49;20.10;99.90
18876;DHT22;9570;50.854;13.778;2023-08-21T04:13:17;20.00;99.90
18876;DHT22;9570;50.854;13.778;2023-08-21T04:15:47;20.00;99.90
18876;DHT22;9570;50.854;13.778;2023-08-21T04:18:13;19.90;99.90
18876;DHT22;9570;50.854;13.778;2023-08-21T04:20:39;19.80;99.90
18876;DHT22;9570;50.854;13.778;2023-08-21T04:23:04;19.80;99.90
18876;DHT22;9570;50.854;13.778;2023-08-21T04:25:30;19.80;99.90
18876;DHT22;9570;50.854;13.778;2023-08-21T04:27:55;19.80;99.90
18876;DHT22;9570;50.854;13.778;2023-08-21T04:30:21;19.70;99.90
18876;DHT22;9570;50.854;13.778;2023-08-21T04:32:47;19.80;99.90
18876;DHT22;9570;50.854;13.778;2023-08-21T04:35:13;19.80;99.90
18876;DHT22;9570;50.854;13.778;2023-08-21T04:37:43;19.80;99.90
18876;DHT22;9570;50.854;13.778;2023-08-21T04:40:10;19.90;99.90
18876;DHT22;9570;50.854;13.778;2023-08-21T04:42:36;19.90;99.90
18876;DHT22;9570;50.854;13.778;2023-08-21T04:45:01;19.90;99.90
18876;DHT22;9570;50.854;13.778;2023-08-21T04:47:28;19.90;99.90
18876;DHT22;9570;50.854;13.778;2023-08-21T04:49:54;20.00;99.90
18876;DHT22;9570;50.854;13.778;2023-08-21T04:52:21;20.00;99.90
18876;DHT22;9570;50.854;13.778;2023-08-21T04:54:47;20.00;99.90
18876;DHT22;9570;50.854;13.778;2023-08-21T04:57:13;20.10;99.90
18876;DHT22;9570;50.854;13.778;2023-08-21T04:59:39;20.10;99.90
18876;DHT22;9570;50.854;13.778;2023-08-21T05:02:04;20.20;99.90
18876;DHT22;9570;50.854;13.778;2023-08-21T05:04:30;20.20;99.90
18876;DHT22;9570;50.854;13.778;2023-08-21T05:06:55;20.20;99.90
18876;DHT22;9570;50.854;13.778;2023-08-21T05:09:21;20.30;99.90
18876;DHT22;9570;50.854;13.778;2023-08-21T05:11:47;20.40;99.90
18876;DHT22;9570;50.854;13.778;2023-08-21T05:14:12;20.60;99.90
18876;DHT22;9570;50.854;13.778;2023-08-21T05:16:38;20.60;99.90
18876;DHT22;9570;50.854;13.778;2023-08-21T05:19:03;20.70;99.90
18876;DHT22;9570;50.854;13.778;2023-08-21T05:21:29;20.70;99.90
18876;DHT22;9570;50.854;13.778;2023-08-21T05:23:55;20.80;99.90
18876;DHT22;9570;50.854;13.778;2023-08-21T05:26:20;20.80;99.90
18876;DHT22;9570;50.854;13.778;2023-08-21T05:28:46;21.00;99.90
18876;DHT22;9570;50.854;13.778;2023-08-21T05:31:11;21.00;99.90
18876;DHT22;9570;50.854;13.778;2023-08-21T05:33:37;21.00;99.90
18876;DHT22;9570;50.854;13.778;2023-08-21T05:36:03;21.10;99.90
18876;DHT22;9570;50.854;13.778;2023-08-21T05:38:28;21.10;99.90
18876;DHT22;9570;50.854;13.778;2023-08-21T05:40:54;21.20;99.90
18876;DHT22;9570;50.854;13.778;2023-08-21T05:43:19;21.20;99.90
18876;DHT22;9570;50.854;13.778;2023-08-21T05:45:45;21.20;99.90
18876;DHT22;9570;50.854;13.778;2023-08-21T05:48:10;21.30;99.90
18876;DHT22;9570;50.854;13.778;2023-08-21T05:50:36;21.30;99.90
18876;DHT22;9570;50.854;13.778;2023-08-21T05:53:05;21.30;99.90
18876;DHT22;9570;50.854;13.778;2023-08-21T05:55:31;21.40;99.90
18876;DHT22;9570;50.854;13.778;2023-08-21T05:57:57;21.40;99.90
18876;DHT22;9570;50.854;13.778;2023-08-21T06:00:22;21.40;99.90
18876;DHT22;9570;50.854;13.778;2023-08-21T06:02:48;21.50;99.90
18876;DHT22;9570;50.854;13.778;2023-08-21T06:05:13;21.50;99.90
18876;DHT22;9570;50.854;13.778;2023-08-21T06:07:39;21.60;99.90
18876;DHT22;9570;50.854;13.778;2023-08-21T06:10:09;21.70;99.90
18876;DHT22;9570;50.854;13.778;2023-08-21T06:12:37;21.70;99.90
18876;DHT22;9570;50.854;13.778;2023-08-21T06:15:02;21.70;99.90
18876;DHT22;9570;50.854;13.778;2023-08-21T06:17:28;21.80;99.90
18876;DHT22;9570;50.854;13.778;2023-08-21T06:19:53;22.00;99.90
18876;DHT22;9570;50.854;13.778;2023-08-21T06:22:19;22.30;99.90
18876;DHT22;9570;50.854;13.778;2023-08-21T06:24:44;22.80;99.90
18876;DHT22;9570;50.854;13.778;2023-08-21T06:27:10;23.20;99.90
18876;DHT22;9570;50.854;13.778;2023-08-21T06:29:36;23.60;99.90
18876;DHT22;9570;50.854;13.778;2023-08-21T06:32:03;24.00;99.90
18876;DHT22;9570;50.854;13.778;2023-08-21T06:34:28;24.40;99.90
18876;DHT22;9570;50.854;13.778;2023-08-21T06:36:54;24.90;99.90
18876;DHT22;9570;50.854;13.778;2023-08-21T06:39:19;25.20;99.90
18876;DHT22;9570;50.854;13.778;2023-08-21T06:41:45;25.40;99.90
18876;DHT22;9570;50.854;13.778;2023-08-21T06:44:10;25.70;99.90
18876;DHT22;9570;50.854;13.778;2023-08-21T06:46:36;26.10;99.90
18876;DHT22;9570;50.854;13.778;2023-08-21T06:49:01;26.40;99.90
18876;DHT22;9570;50.854;13.778;2023-08-21T06:51:27;26.50;99.90
18876;DHT22;9570;50.854;13.778;2023-08-21T06:53:53;26.50;99.90
18876;DHT22;9570;50.854;13.778;2023-08-21T06:56:18;26.90;99.90
18876;DHT22;9570;50.854;13.778;2023-08-21T06:58:44;27.10;99.90
18876;DHT22;9570;50.854;13.778;2023-08-21T07:01:09;27.30;99.90
18876;DHT22;9570;50.854;13.778;2023-08-21T07:03:35;27.40;99.90
18876;DHT22;9570;50.854;13.778;2023-08-21T07:06:00;27.70;99.90
18876;DHT22;9570;50.854;13.778;2023-08-21T07:08:27;27.90;99.90
18876;DHT22;9570;50.854;13.778;2023-08-21T07:10:53;28.20;99.90
18876;DHT22;9570;50.854;13.778;2023-08-21T07:13:19;28.60;99.90
18876;DHT22;9570;50.854;13.778;2023-08-21T07:15:46;28.80;99.90
18876;DHT22;9570;50.854;13.778;2023-08-21T07:18:11;28.90;99.90
18876;DHT22;9570;50.854;13.778;2023-08-21T07:20:37;28.90;99.90
18876;DHT22;9570;50.854;13.778;2023-08-21T07:23:03;29.10;99.90
18876;DHT22;9570;50.854;13.778;2023-08-21T07:25:28;29.40;99.90
18876;DHT22;9570;50.854;13.778;2023-08-21T07:27:54;29.80;99.90
18876;DHT22;9570;50.854;13.778;2023-08-21T07:30:20;30.10;99.90
18876;DHT22;9570;50.854;13.778;2023-08-21T07:32:47;30.20;99.90
18876;DHT22;9570;50.854;13.778;2023-08-21T07:35:13;30.20;99.90
18876;DHT22;9570;50.854;13.778;2023-08-21T07:37:38;30.10;99.90
18876;DHT22;9570;50.854;13.778;2023-08-21T07:40:07;29.90;99.90
18876;DHT22;9570;50.854;13.778;2023-08-21T07:42:32;30.10;99.90
18876;DHT22;9570;50.854;13.778;2023-08-21T07:44:58;30.40;99.90
18876;DHT22;9570;50.854;13.778;2023-08-21T07:47:23;30.80;99.90
18876;DHT22;9570;50.854;13.778;2023-08-21T07:49:49;30.90;99.90
18876;DHT22;9570;50.854;13.778;2023-08-21T07:52:14;30.70;99.90
18876;DHT22;9570;50.854;13.778;2023-08-21T07:54:41;30.50;99.90
18876;DHT22;9570;50.854;13.778;2023-08-21T07:57:07;30.80;99.90
18876;DHT22;9570;50.854;13.778;2023-08-21T07:59:32;30.50;99.90
18876;DHT22;9570;50.854;13.778;2023-08-21T08:01:58;30.70;99.90
18876;DHT22;9570;50.854;13.778;2023-08-21T08:04:25;31.30;99.90
18876;DHT22;9570;50.854;13.778;2023-08-21T08:06:51;31.80;99.90
18876;DHT22;9570;50.854;13.778;2023-08-21T08:09:16;31.50;99.90
18876;DHT22;9570;50.854;13.778;2023-08-21T08:11:42;31.40;99.90
18876;DHT22;9570;50.854;13.778;2023-08-21T08:14:07;30.80;99.90
18876;DHT22;9570;50.854;13.778;2023-08-21T08:16:33;30.50;99.90
18876;DHT22;9570;50.854;13.778;2023-08-21T08:18:58;30.40;99.90
18876;DHT22;9570;50.854;13.778;2023-08-21T08:21:24;30.00;99.90
18876;DHT22;9570;50.854;13.778;2023-08-21T08:23:49;29.80;99.90
18876;DHT22;9570;50.854;13.778;2023-08-21T08:26:15;30.10;99.90
18876;DHT22;9570;50.854;13.778;2023-08-21T08:28:42;30.20;99.90
18876;DHT22;9570;50.854;13.778;2023-08-21T08:31:14;29.70;99.90
18876;DHT22;9570;50.854;13.778;2023-08-21T08:33:40;29.00;99.90
18876;DHT22;9570;50.854;13.778;2023-08-21T08:36:05;28.60;99.90
18876;DHT22;9570;50.854;13.778;2023-08-21T08:38:31;28.60;99.90
18876;DHT22;9570;50.854;13.778;2023-08-21T08:40:56;28.80;99.90
18876;DHT22;9570;50.854;13.778;2023-08-21T08:43:24;28.90;99.90
18876;DHT22;9570;50.854;13.778;2023-08-21T08:45:50;29.50;99.90
18876;DHT22;9570;50.854;13.778;2023-08-21T08:48:18;29.80;99.90
18876;DHT22;9570;50.854;13.778;2023-08-21T08:50:45;29.90;99.90
18876;DHT22;9570;50.854;13.778;2023-08-21T08:53:12;30.00;99.90
18876;DHT22;9570;50.854;13.778;2023-08-21T08:55:38;30.40;99.90
18876;DHT22;9570;50.854;13.778;2023-08-21T08:58:03;30.20;99.90
18876;DHT22;9570;50.854;13.778;2023-08-21T09:00:31;30.10;99.90
18876;DHT22;9570;50.854;13.778;2023-08-21T09:02:57;30.20;99.90
18876;DHT22;9570;50.854;13.778;2023-08-21T09:05:23;30.20;99.90
18876;DHT22;9570;50.854;13.778;2023-08-21T09:08:03;30.40;99.90
18876;DHT22;9570;50.854;13.778;2023-08-21T09:10:29;30.10;99.90
18876;DHT22;9570;50.854;13.778;2023-08-21T09:12:55;30.20;99.90
18876;DHT22;9570;50.854;13.778;2023-08-21T09:15:28;30.90;99.90
18876;DHT22;9570;50.854;13.778;2023-08-21T09:17:55;31.00;99.90
18876;DHT22;9570;50.854;13.778;2023-08-21T09:20:20;31.20;99.90
18876;DHT22;9570;50.854;13.778;2023-08-21T09:22:53;30.90;99.90
18876;DHT22;9570;50.854;13.778;2023-08-21T09:25:20;30.80;99.90
18876;DHT22;9570;50.854;13.778;2023-08-21T09:27:46;31.30;99.90
18876;DHT22;9570;50.854;13.778;2023-08-21T09:30:16;32.10;99.90
18876;DHT22;9570;50.854;13.778;2023-08-21T09:32:58;32.60;99.90
18876;DHT22;9570;50.854;13.778;2023-08-21T09:35:32;32.90;99.90
18876;DHT22;9570;50.854;13.778;2023-08-21T09:37:59;32.00;99.90
18876;DHT22;9570;50.854;13.778;2023-08-21T09:40:24;32.00;99.90
18876;DHT22;9570;50.854;13.778;2023-08-21T09:42:54;32.20;99.90
18876;DHT22;9570;50.854;13.778;2023-08-21T09:45:24;31.80;99.90
18876;DHT22;9570;50.854;13.778;2023-08-21T09:47:53;32.10;99.90
18876;DHT22;9570;50.854;13.778;2023-08-21T09:50:19;32.20;99.90
18876;DHT22;9570;50.854;13.778;2023-08-21T09:52:45;32.20;99.90
18876;DHT22;9570;50.854;13.778;2023-08-21T09:55:13;31.80;99.90
18876;DHT22;9570;50.854;13.778;2023-08-21T09:57:39;30.90;99.90
18876;DHT22;9570;50.854;13.778;2023-08-21T10:00:06;30.70;99.90
18876;DHT22;9570;50.854;13.778;2023-08-21T10:02:42;31.20;99.90
18876;DHT22;9570;50.854;13.778;2023-08-21T10:05:13;31.00;99.90
18876;DHT22;9570;50.854;13.778;2023-08-21T10:07:40;30.70;99.90
18876;DHT22;9570;50.854;13.778;2023-08-21T10:10:08;30.70;99.90
18876;DHT22;9570;50.854;13.778;2023-08-21T10:12:34;30.30;99.90
18876;DHT22;9570;50.854;13.778;2023-08-21T10:15:00;29.90;99.90
18876;DHT22;9570;50.854;13.778;2023-08-21T10:17:26;29.80;99.90
18876;DHT22;9570;50.854;13.778;2023-08-21T10:19:52;30.00;99.90
18876;DHT22;9570;50.854;13.778;2023-08-21T10:22:43;30.30;99.90
18876;DHT22;9570;50.854;13.778;2023-08-21T10:25:23;31.00;99.90
18876;DHT22;9570;50.854;13.778;2023-08-21T10:27:55;31.60;99.90
18876;DHT22;9570;50.854;13.778;2023-08-21T10:30:23;31.90;99.90
18876;DHT22;9570;50.854;13.778;2023-08-21T10:32:51;32.50;99.90
18876;DHT22;9570;50.854;13.778;2023-08-21T10:35:22;32.40;99.90
18876;DHT22;9570;50.854;13.778;2023-08-21T10:38:13;32.40;99.90
18876;DHT22;9570;50.854;13.778;2023-08-21T10:40:41;32.10;99.90
18876;DHT22;9570;50.854;13.778;2023-08-21T10:43:37;31.90;99.90
18876;DHT22;9570;50.854;13.778;2023-08-21T10:46:03;31.30;99.90
18876;DHT22;9570;50.854;13.778;2023-08-21T10:48:29;31.50;99.90
18876;DHT22;9570;50.854;13.778;2023-08-21T10:50:54;31.60;99.90
18876;DHT22;9570;50.854;13.778;2023-08-21T10:53:21;31.50;99.90
18876;DHT22;9570;50.854;13.778;2023-08-21T10:55:54;30.90;99.90
18876;DHT22;9570;50.854;13.778;2023-08-21T10:58:20;30.30;99.90
18876;DHT22;9570;50.854;13.778;2023-08-21T11:00:46;29.90;99.90
18876;DHT22;9570;50.854;13.778;2023-08-21T11:03:11;29.90;99.90
18876;DHT22;9570;50.854;13.778;2023-08-21T11:05:37;30.00;99.90
18876;DHT22;9570;50.854;13.778;2023-08-21T11:08:03;30.20;99.90
18876;DHT22;9570;50.854;13.778;2023-08-21T11:10:30;30.60;99.90
18876;DHT22;9570;50.854;13.778;2023-08-21T11:12:57;30.30;99.90
18876;DHT22;9570;50.854;13.778;2023-08-21T11:15:27;30.20;99.90
18876;DHT22;9570;50.854;13.778;2023-08-21T11:17:58;30.20;99.90
18876;DHT22;9570;50.854;13.778;2023-08-21T11:20:34;30.00;99.90
18876;DHT22;9570;50.854;13.778;2023-08-21T11:23:01;30.10;99.90
18876;DHT22;9570;50.854;13.778;2023-08-21T11:25:39;30.10;99.90
18876;DHT22;9570;50.854;13.778;2023-08-21T11:28:06;30.10;99.90
18876;DHT22;9570;50.854;13.778;2023-08-21T11:30:31;29.80;99.90
18876;DHT22;9570;50.854;13.778;2023-08-21T11:33:12;29.60;99.90
18876;DHT22;9570;50.854;13.778;2023-08-21T11:35:38;29.70;99.90
18876;DHT22;9570;50.854;13.778;2023-08-21T11:38:04;30.00;99.90
18876;DHT22;9570;50.854;13.778;2023-08-21T11:40:30;29.90;99.90
18876;DHT22;9570;50.854;13.778;2023-08-21T11:43:03;29.90;99.90
18876;DHT22;9570;50.854;13.778;2023-08-21T11:45:29;29.80;99.90
18876;DHT22;9570;50.854;13.778;2023-08-21T11:47:58;29.80;99.90
18876;DHT22;9570;50.854;13.778;2023-08-21T11:50:23;29.90;99.90
18876;DHT22;9570;50.854;13.778;2023-08-21T11:52:54;29.80;99.90
18876;DHT22;9570;50.854;13.778;2023-08-21T11:55:20;29.80;99.90
18876;DHT22;9570;50.854;13.778;2023-08-21T11:57:51;29.90;99.90
18876;DHT22;9570;50.854;13.778;2023-08-21T12:00:18;30.10;99.90
18876;DHT22;9570;50.854;13.778;2023-08-21T12:02:58;30.10;99.90
18876;DHT22;9570;50.854;13.778;2023-08-21T12:05:25;30.20;99.90
18876;DHT22;9570;50.854;13.778;2023-08-21T12:07:51;30.10;99.90
18876;DHT22;9570;50.854;13.778;2023-08-21T12:10:29;30.30;99.90
18876;DHT22;9570;50.854;13.778;2023-08-21T12:12:55;30.30;99.90
18876;DHT22;9570;50.854;13.778;2023-08-21T12:15:22;30.10;99.90
18876;DHT22;9570;50.854;13.778;2023-08-21T12:17:47;30.10;99.90
18876;DHT22;9570;50.854;13.778;2023-08-21T12:20:13;30.00;99.90
18876;DHT22;9570;50.854;13.778;2023-08-21T12:22:39;30.00;99.90
18876;DHT22;9570;50.854;13.778;2023-08-21T12:25:06;30.00;99.90
18876;DHT22;9570;50.854;13.778;2023-08-21T12:27:31;30.00;99.90
18876;DHT22;9570;50.854;13.778;2023-08-21T12:29:57;30.10;99.90
18876;DHT22;9570;50.854;13.778;2023-08-21T12:32:22;30.00;99.90
18876;DHT22;9570;50.854;13.778;2023-08-21T12:34:48;29.80;99.90
18876;DHT22;9570;50.854;13.778;2023-08-21T12:37:13;29.80;99.90
18876;DHT22;9570;50.854;13.778;2023-08-21T12:39:39;29.70;99.90
18876;DHT22;9570;50.854;13.778;2023-08-21T12:42:05;29.50;99.90
18876;DHT22;9570;50.854;13.778;2023-08-21T12:44:30;29.50;99.90
18876;DHT22;9570;50.854;13.778;2023-08-21T12:46:56;29.20;99.90
18876;DHT22;9570;50.854;13.778;2023-08-21T12:49:22;29.10;99.90
18876;DHT22;9570;50.854;13.778;2023-08-21T12:51:47;29.20;99.90
18876;DHT22;9570;50.854;13.778;2023-08-21T12:54:13;29.20;99.90
18876;DHT22;9570;50.854;13.778;2023-08-21T12:56:38;29.20;99.90
18876;DHT22;9570;50.854;13.778;2023-08-21T12:59:04;29.40;99.90
18876;DHT22;9570;50.854;13.778;2023-08-21T13:01:30;29.30;99.90
18876;DHT22;9570;50.854;13.778;2023-08-21T13:03:57;29.40;99.90
18876;DHT22;9570;50.854;13.778;2023-08-21T13:06:22;29.50;99.90
18876;DHT22;9570;50.854;13.778;2023-08-21T13:08:48;29.40;99.90
18876;DHT22;9570;50.854;13.778;2023-08-21T13:11:13;29.20;99.90
18876;DHT22;9570;50.854;13.778;2023-08-21T13:13:39;29.30;99.90
18876;DHT22;9570;50.854;13.778;2023-08-21T13:16:04;29.30;99.90
18876;DHT22;9570;50.854;13.778;2023-08-21T13:18:30;29.30;99.90
18876;DHT22;9570;50.854;13.778;2023-08-21T13:20:55;29.40;99.90
18876;DHT22;9570;50.854;13.778;2023-08-21T13:23:21;29.40;99.90
18876;DHT22;9570;50.854;13.778;2023-08-21T13:25:47;29.30;99.90
18876;DHT22;9570;50.854;13.778;2023-08-21T13:28:12;28.90;99.90
18876;DHT22;9570;50.854;13.778;2023-08-21T13:30:38;28.80;99.90
18876;DHT22;9570;50.854;13.778;2023-08-21T13:33:04;28.90;99.90
18876;DHT22;9570;50.854;13.778;2023-08-21T13:35:30;28.90;99.90
18876;DHT22;9570;50.854;13.778;2023-08-21T13:37:55;29.00;99.90
18876;DHT22;9570;50.854;13.778;2023-08-21T13:40:21;29.00;99.90
18876;DHT22;9570;50.854;13.778;2023-08-21T13:42:48;28.90;99.90
18876;DHT22;9570;50.854;13.778;2023-08-21T13:45:15;29.00;99.90
18876;DHT22;9570;50.854;13.778;2023-08-21T13:47:41;29.10;99.90
18876;DHT22;9570;50.854;13.778;2023-08-21T13:50:08;29.20;99.90
18876;DHT22;9570;50.854;13.778;2023-08-21T13:52:34;29.10;99.90
18876;DHT22;9570;50.854;13.778;2023-08-21T13:55:00;28.70;99.90
18876;DHT22;9570;50.854;13.778;2023-08-21T13:57:26;28.50;99.90
18876;DHT22;9570;50.854;13.778;2023-08-21T13:59:52;28.50;99.90
18876;DHT22;9570;50.854;13.778;2023-08-21T14:02:17;28.60;99.90
18876;DHT22;9570;50.854;13.778;2023-08-21T14:04:47;28.70;99.90
18876;DHT22;9570;50.854;13.778;2023-08-21T14:07:13;28.60;99.90
18876;DHT22;9570;50.854;13.778;2023-08-21T14:09:38;28.60;99.90
18876;DHT22;9570;50.854;13.778;2023-08-21T14:12:04;28.70;99.90
18876;DHT22;9570;50.854;13.778;2023-08-21T14:14:32;28.70;99.90
18876;DHT22;9570;50.854;13.778;2023-08-21T14:16:58;28.70;99.90
18876;DHT22;9570;50.854;13.778;2023-08-21T14:19:24;28.70;99.90
18876;DHT22;9570;50.854;13.778;2023-08-21T14:21:49;28.50;99.90
18876;DHT22;9570;50.854;13.778;2023-08-21T14:24:15;28.30;99.90
18876;DHT22;9570;50.854;13.778;2023-08-21T14:26:41;28.40;99.90
18876;DHT22;9570;50.854;13.778;2023-08-21T14:29:07;28.40;99.90
18876;DHT22;9570;50.854;13.778;2023-08-21T14:31:32;28.50;99.90
18876;DHT22;9570;50.854;13.778;2023-08-21T14:33:58;28.40;99.90
18876;DHT22;9570;50.854;13.778;2023-08-21T14:36:24;28.20;99.90
18876;DHT22;9570;50.854;13.778;2023-08-21T14:38:50;28.20;99.90
18876;DHT22;9570;50.854;13.778;2023-08-21T14:41:16;28.20;99.90
18876;DHT22;9570;50.854;13.778;2023-08-21T14:43:42;28.30;99.90
18876;DHT22;9570;50.854;13.778;2023-08-21T14:46:08;28.40;99.90
18876;DHT22;9570;50.854;13.778;2023-08-21T14:48:33;28.40;99.90
18876;DHT22;9570;50.854;13.778;2023-08-21T14:50:58;28.40;99.90
18876;DHT22;9570;50.854;13.778;2023-08-21T14:53:24;28.30;99.90
18876;DHT22;9570;50.854;13.778;2023-08-21T14:55:49;28.30;99.90
18876;DHT22;9570;50.854;13.778;2023-08-21T14:58:16;28.20;99.90
18876;DHT22;9570;50.854;13.778;2023-08-21T15:00:41;28.00;99.90
18876;DHT22;9570;50.854;13.778;2023-08-21T15:03:07;27.80;99.90
18876;DHT22;9570;50.854;13.778;2023-08-21T15:05:32;27.80;99.90
18876;DHT22;9570;50.854;13.778;2023-08-21T15:07:58;27.80;99.90
18876;DHT22;9570;50.854;13.778;2023-08-21T15:10:27;27.80;99.90
18876;DHT22;9570;50.854;13.778;2023-08-21T15:12:52;27.80;99.90
18876;DHT22;9570;50.854;13.778;2023-08-21T15:15:18;27.70;99.90
18876;DHT22;9570;50.854;13.778;2023-08-21T15:17:46;27.60;99.90
18876;DHT22;9570;50.854;13.778;2023-08-21T15:20:11;27.70;99.90
18876;DHT22;9570;50.854;13.778;2023-08-21T15:22:39;27.60;99.90
18876;DHT22;9570;50.854;13.778;2023-08-21T15:25:05;27.60;99.90
18876;DHT22;9570;50.854;13.778;2023-08-21T15:27:30;27.40;99.90
18876;DHT22;9570;50.854;13.778;2023-08-21T15:29:56;27.40;99.90